Anchorage, Kentucky
Current Conditions -  °F | °C
As of 12:53 AM on Saturday 20 Dec 2014 (Local Time) from KLOU Reporting Station
Overcast Overcast  
Wind Chill: 30°   Ceiling: 9000
Heat Index: 30°   Visibility: 10mi
Dew Point: 22°   Wind: 0mph
Humidity: 72%   Direction: NA
Pressure: 30.28"   Gusts: NA
Location:  38.2621°N, 85.5415°W
Report Text: KLOU 200553Z AUTO 00000KT 10SM BKN090 OVC110 M01/M06 A3028 RMK AO2 SLP260 T10111056 11011 21022 53001
Loading
Personal Weather Stations






























Interactive Weather Map New forecast layout! Learn more

10-Day Weather Forecast

Advertisements
Track Severe Weather on mobile